Time;durP1;ratioP1;P1;durP2;ratioP2;P2;SDS_P1;SDS_P2;PMS_P1;PMS_P2;Temp;Humidity;BMP_temperature;BMP_pressure;BME280_temperature;BME280_humidity;BME280_pressure;Samples;Min_cycle;Max_cycle;Signal;HPM_P1;HPM_P2
2021/06/26 00:01:43;;;;;;;6.00;4.03;;;17.30;99.90;;;;;;5025156;28;20241;-64
2021/06/26 00:04:14;;;;;;;4.33;3.93;;;17.30;99.90;;;;;;5027592;28;20237;-63
2021/06/26 00:06:43;;;;;;;4.50;4.17;;;17.20;99.90;;;;;;5046592;28;20226;-64
2021/06/26 00:09:13;;;;;;;3.90;3.60;;;17.20;99.90;;;;;;5046744;28;20238;-63
2021/06/26 00:11:42;;;;;;;3.90;3.60;;;17.20;99.90;;;;;;5026671;28;20229;-64
2021/06/26 00:14:11;;;;;;;3.80;3.50;;;17.10;99.90;;;;;;5027125;28;20259;-64
2021/06/26 00:16:41;;;;;;;3.87;3.53;;;17.10;99.90;;;;;;5046047;28;20659;-64
2021/06/26 00:19:11;;;;;;;4.57;4.17;;;17.10;99.90;;;;;;5044233;28;20727;-61
2021/06/26 00:21:42;;;;;;;4.50;3.60;;;17.00;99.90;;;;;;5060007;28;20242;-63
2021/06/26 00:24:12;;;;;;;4.20;3.80;;;17.00;99.90;;;;;;5047329;28;20256;-64
2021/06/26 00:26:42;;;;;;;4.17;3.77;;;17.00;99.90;;;;;;5041720;28;20237;-64
2021/06/26 00:29:11;;;;;;;4.10;3.80;;;17.00;99.90;;;;;;5026793;28;20674;-64
2021/06/26 00:31:41;;;;;;;5.33;3.60;;;16.90;99.90;;;;;;5025666;28;20241;-64
2021/06/26 00:34:11;;;;;;;4.37;3.97;;;16.90;99.90;;;;;;5026405;28;20255;-64
2021/06/26 00:36:42;;;;;;;4.50;4.10;;;16.90;99.90;;;;;;5045362;28;20246;-64
2021/06/26 00:39:12;;;;;;;4.17;3.87;;;16.80;99.90;;;;;;5048064;28;20228;-64
2021/06/26 00:41:41;;;;;;;4.77;4.00;;;16.80;99.90;;;;;;5029916;28;20236;-63
2021/06/26 00:44:11;;;;;;;4.53;4.13;;;16.70;99.90;;;;;;5030953;28;20236;-64
2021/06/26 00:46:40;;;;;;;4.00;3.70;;;16.70;99.90;;;;;;5049187;28;20263;-63
2021/06/26 00:49:10;;;;;;;4.37;4.00;;;16.70;99.90;;;;;;5050195;28;20232;-64
2021/06/26 00:51:41;;;;;;;4.33;4.00;;;16.70;99.90;;;;;;5049581;28;20233;-63
2021/06/26 00:54:11;;;;;;;4.50;4.10;;;16.70;99.90;;;;;;5050628;28;20236;-64
2021/06/26 00:56:41;;;;;;;5.07;4.63;;;16.80;99.90;;;;;;5030954;28;20251;-63
2021/06/26 00:59:13;;;;;;;4.53;4.13;;;16.80;99.90;;;;;;5030077;28;20613;-64
2021/06/26 01:01:43;;;;;;;5.30;4.80;;;16.80;99.90;;;;;;5048874;28;20242;-64
2021/06/26 01:04:12;;;;;;;5.20;4.57;;;16.80;99.90;;;;;;5050428;28;20244;-64
2021/06/26 01:06:46;;;;;;;4.70;4.17;;;16.80;99.90;;;;;;5030027;28;20237;-61
2021/06/26 01:09:16;;;;;;;5.07;4.60;;;16.80;99.90;;;;;;5022646;28;20231;-63
2021/06/26 01:11:46;;;;;;;5.10;4.70;;;16.70;99.90;;;;;;5028394;28;20249;-63
2021/06/26 01:14:15;;;;;;;5.40;4.90;;;16.70;99.90;;;;;;5030448;28;20236;-63
2021/06/26 01:16:45;;;;;;;5.77;4.90;;;16.70;99.90;;;;;;5049870;28;20259;-63
2021/06/26 01:19:14;;;;;;;5.73;5.10;;;16.70;99.90;;;;;;5065012;28;20240;-64
2021/06/26 01:21:45;;;;;;;5.70;5.10;;;16.70;99.90;;;;;;5049266;28;20751;-64
2021/06/26 01:24:16;;;;;;;5.70;5.20;;;16.70;99.90;;;;;;5032897;28;20913;-63
2021/06/26 01:26:46;;;;;;;7.57;4.93;;;16.60;99.90;;;;;;5029429;28;20704;-62
2021/06/26 01:29:15;;;;;;;5.47;4.97;;;16.60;99.90;;;;;;5030106;28;20275;-63
2021/06/26 01:31:45;;;;;;;5.30;4.90;;;16.60;99.90;;;;;;5029339;28;20256;-62
2021/06/26 01:34:14;;;;;;;5.77;4.33;;;16.60;99.90;;;;;;5029913;28;20270;-64
2021/06/26 01:36:44;;;;;;;4.67;4.23;;;16.70;99.90;;;;;;5029183;28;20306;-63
2021/06/26 01:39:13;;;;;;;5.30;4.80;;;16.70;99.90;;;;;;5029662;28;20236;-63
2021/06/26 01:41:45;;;;;;;4.70;4.30;;;16.60;99.90;;;;;;5034158;28;20303;-64
2021/06/26 01:44:14;;;;;;;5.27;4.50;;;16.70;99.90;;;;;;5030316;28;20642;-64
2021/06/26 01:46:44;;;;;;;4.80;4.40;;;16.70;99.90;;;;;;5048931;28;20309;-63
2021/06/26 01:49:15;;;;;;;5.53;4.50;;;16.80;99.90;;;;;;5049282;28;20315;-63
2021/06/26 01:51:45;;;;;;;5.40;5.00;;;16.80;99.90;;;;;;5027905;28;20233;-64
2021/06/26 01:54:15;;;;;;;5.47;5.07;;;16.60;99.90;;;;;;5029989;28;20240;-64
2021/06/26 01:56:46;;;;;;;6.27;5.37;;;16.50;99.90;;;;;;5032003;28;20241;-63
2021/06/26 01:59:15;;;;;;;7.33;5.40;;;16.50;99.90;;;;;;5028814;28;20244;-62
2021/06/26 02:01:43;;;;;;;5.80;5.20;;;16.40;99.90;;;;;;5048448;28;20311;-64
2021/06/26 02:04:12;;;;;;;5.20;4.80;;;16.40;99.90;;;;;;5049545;28;20265;-64
2021/06/26 02:06:40;;;;;;;5.97;5.37;;;16.40;99.90;;;;;;5048642;28;20240;-64
2021/06/26 02:09:08;;;;;;;5.60;5.10;;;16.30;99.90;;;;;;5049237;28;20243;-64
2021/06/26 02:11:36;;;;;;;7.20;5.40;;;16.40;99.90;;;;;;5029591;28;20243;-63
2021/06/26 02:14:06;;;;;;;6.13;5.47;;;16.40;99.90;;;;;;5029326;28;20298;-64
2021/06/26 02:16:34;;;;;;;6.03;5.43;;;16.40;99.90;;;;;;5047248;28;20246;-64
2021/06/26 02:19:03;;;;;;;5.63;5.13;;;16.40;99.90;;;;;;5048765;28;20326;-64
2021/06/26 02:21:31;;;;;;;5.30;4.80;;;16.40;99.90;;;;;;5029643;28;20319;-63
2021/06/26 02:23:59;;;;;;;6.03;5.53;;;16.50;99.90;;;;;;5044333;28;20240;-63
2021/06/26 02:26:27;;;;;;;5.57;5.17;;;16.50;99.90;;;;;;5028363;28;20645;-64
2021/06/26 02:28:55;;;;;;;5.47;4.97;;;16.50;99.90;;;;;;5028563;28;20267;-62
2021/06/26 02:31:25;;;;;;;6.47;5.30;;;16.50;99.90;;;;;;5044589;28;20228;-63
2021/06/26 02:33:53;;;;;;;5.73;5.30;;;16.50;99.90;;;;;;5035178;28;20232;-62
2021/06/26 02:36:21;;;;;;;6.47;5.87;;;16.50;99.90;;;;;;5028353;28;20236;-62
2021/06/26 02:38:51;;;;;;;5.77;5.27;;;16.40;99.90;;;;;;5028412;28;20674;-63
2021/06/26 02:41:21;;;;;;;6.47;5.47;;;16.50;99.90;;;;;;5043669;28;20236;-63
2021/06/26 02:43:49;;;;;;;5.07;4.60;;;16.40;99.90;;;;;;5048738;28;20269;-63
2021/06/26 02:46:18;;;;;;;5.37;4.93;;;16.50;99.90;;;;;;5032314;28;20240;-63
2021/06/26 02:48:47;;;;;;;5.20;4.80;;;16.40;99.90;;;;;;5028728;28;20236;-63
2021/06/26 02:51:16;;;;;;;5.70;5.20;;;16.40;99.90;;;;;;5027723;28;20232;-62
2021/06/26 02:53:44;;;;;;;5.33;4.93;;;16.30;99.90;;;;;;5028277;28;20300;-63
2021/06/26 02:56:12;;;;;;;6.40;5.80;;;16.30;99.90;;;;;;5027698;28;20235;-63
2021/06/26 02:58:40;;;;;;;6.40;5.80;;;16.30;99.90;;;;;;5028126;28;20237;-63
2021/06/26 03:01:08;;;;;;;5.63;5.17;;;16.20;99.90;;;;;;5042175;28;20310;-61
2021/06/26 03:03:36;;;;;;;9.63;6.10;;;16.20;99.90;;;;;;5048248;28;20231;-63
2021/06/26 03:06:06;;;;;;;6.33;5.77;;;16.20;99.90;;;;;;5048171;28;20236;-63
2021/06/26 03:08:34;;;;;;;6.17;5.53;;;16.20;99.90;;;;;;5047468;28;20716;-63
2021/06/26 03:11:02;;;;;;;6.87;5.67;;;16.20;99.90;;;;;;5033038;28;20255;-63
2021/06/26 03:13:30;;;;;;;7.00;5.50;;;16.30;99.90;;;;;;5043244;28;20249;-63
2021/06/26 03:15:58;;;;;;;6.27;5.77;;;16.20;99.90;;;;;;5027668;28;20232;-63
2021/06/26 03:18:27;;;;;;;5.73;5.20;;;16.30;99.90;;;;;;5027405;28;20236;-63
2021/06/26 03:20:55;;;;;;;5.50;4.93;;;16.40;99.90;;;;;;5030243;28;20235;-64
2021/06/26 03:23:25;;;;;;;6.47;5.40;;;16.40;99.90;;;;;;5027981;28;20233;-63
2021/06/26 03:25:53;;;;;;;5.97;5.47;;;16.40;99.90;;;;;;5027434;28;20639;-63
2021/06/26 03:28:21;;;;;;;5.90;5.30;;;16.40;99.90;;;;;;5027483;28;20236;-63
2021/06/26 03:30:49;;;;;;;5.73;5.23;;;16.40;99.90;;;;;;5039048;28;20232;-64
2021/06/26 03:33:17;;;;;;;5.80;5.37;;;16.50;99.90;;;;;;5047985;28;20231;-64
2021/06/26 03:35:45;;;;;;;6.07;5.50;;;16.60;99.90;;;;;;5035925;28;20280;-63
2021/06/26 03:38:13;;;;;;;5.67;5.27;;;16.60;99.90;;;;;;5027331;28;20252;-63
2021/06/26 03:40:43;;;;;;;7.00;6.30;;;16.60;99.90;;;;;;5037764;28;20254;-64
2021/06/26 03:43:11;;;;;;;5.90;5.40;;;16.70;99.90;;;;;;5047343;28;20251;-63
2021/06/26 03:45:39;;;;;;;7.40;5.83;;;16.60;99.90;;;;;;5042620;28;20237;-63
2021/06/26 03:48:08;;;;;;;6.53;6.03;;;16.60;99.90;;;;;;5026573;28;20244;-63
2021/06/26 03:50:40;;;;;;;6.53;5.90;;;16.60;99.90;;;;;;5036939;28;20754;-64
2021/06/26 03:53:09;;;;;;;6.47;5.70;;;16.50;99.90;;;;;;5047180;28;20246;-63
2021/06/26 03:55:38;;;;;;;6.47;5.90;;;16.50;99.90;;;;;;5037028;28;20240;-63
2021/06/26 03:58:07;;;;;;;6.77;6.13;;;16.50;99.90;;;;;;5026961;28;20294;-64
2021/06/26 04:00:36;;;;;;;7.87;6.10;;;16.60;99.90;;;;;;5036685;28;20714;-64
2021/06/26 04:03:04;;;;;;;6.73;6.13;;;16.70;99.90;;;;;;5033302;28;20271;-64
2021/06/26 04:05:32;;;;;;;7.43;6.60;;;16.80;99.90;;;;;;5036942;28;20242;-63
2021/06/26 04:08:00;;;;;;;6.87;6.27;;;16.80;99.90;;;;;;5046811;28;20249;-63
2021/06/26 04:10:28;;;;;;;8.47;6.03;;;16.70;99.90;;;;;;5037042;28;20236;-64
2021/06/26 04:12:57;;;;;;;6.00;5.50;;;16.70;99.90;;;;;;5026804;28;20248;-64
2021/06/26 04:15:26;;;;;;;6.10;5.57;;;16.80;99.90;;;;;;5030554;28;20232;-63
2021/06/26 04:17:54;;;;;;;6.63;6.03;;;16.80;99.90;;;;;;5030873;28;20295;-64
2021/06/26 04:20:23;;;;;;;7.00;6.40;;;16.80;99.90;;;;;;5030274;28;20331;-64
2021/06/26 04:22:51;;;;;;;6.40;5.90;;;16.80;99.90;;;;;;5031147;28;20240;-63
2021/06/26 04:25:20;;;;;;;6.60;6.00;;;16.80;99.90;;;;;;5030469;28;20248;-61
2021/06/26 04:27:48;;;;;;;6.77;6.13;;;16.80;99.90;;;;;;5027288;28;20294;-63
2021/06/26 04:30:17;;;;;;;6.17;5.40;;;16.90;99.90;;;;;;5038254;28;20319;-61
2021/06/26 04:32:47;;;;;;;6.67;6.07;;;16.90;99.90;;;;;;5042441;28;20252;-63
2021/06/26 04:35:17;;;;;;;7.97;6.07;;;17.00;99.90;;;;;;5031133;28;20234;-64
2021/06/26 04:37:45;;;;;;;6.87;6.10;;;17.00;99.90;;;;;;5030164;28;21840;-64
2021/06/26 04:40:15;;;;;;;7.50;6.80;;;17.00;99.90;;;;;;5029881;28;20237;-63
2021/06/26 04:42:44;;;;;;;7.63;6.80;;;16.90;99.90;;;;;;5030677;28;20287;-63
2021/06/26 04:45:13;;;;;;;7.50;6.80;;;16.80;99.90;;;;;;5030508;28;20239;-64
2021/06/26 04:47:43;;;;;;;7.00;6.30;;;16.80;99.90;;;;;;5030001;28;20696;-64
2021/06/26 04:50:13;;;;;;;12.93;7.07;;;16.90;99.90;;;;;;5031225;28;20597;-63
2021/06/26 04:52:42;;;;;;;8.47;6.97;;;16.90;99.90;;;;;;5042146;28;20229;-63
2021/06/26 04:55:11;;;;;;;7.93;6.57;;;16.90;99.90;;;;;;5032258;28;20233;-64
2021/06/26 04:57:40;;;;;;;7.73;6.30;;;17.00;99.90;;;;;;5030020;28;20237;-64
2021/06/26 05:00:09;;;;;;;7.40;6.07;;;17.00;99.90;;;;;;5036567;28;20243;-64
2021/06/26 05:02:37;;;;;;;8.27;6.73;;;17.10;99.90;;;;;;5049888;28;20240;-63
2021/06/26 05:05:06;;;;;;;7.17;6.57;;;17.20;99.90;;;;;;5037104;28;20315;-62
2021/06/26 05:07:36;;;;;;;7.03;6.33;;;17.30;99.90;;;;;;5029448;28;20268;-64
2021/06/26 05:10:04;;;;;;;8.50;7.07;;;17.30;99.90;;;;;;5031536;28;20234;-63
2021/06/26 05:12:32;;;;;;;6.93;6.33;;;17.40;99.90;;;;;;5029218;28;20248;-65
2021/06/26 05:15:01;;;;;;;6.67;5.90;;;17.50;99.90;;;;;;5032027;28;20225;-64
2021/06/26 05:17:29;;;;;;;6.37;5.77;;;17.70;99.90;;;;;;5028993;28;20229;-64
2021/06/26 05:19:57;;;;;;;6.73;5.97;;;17.80;99.90;;;;;;5028617;28;20248;-64
2021/06/26 05:22:25;;;;;;;9.97;6.67;;;18.00;99.90;;;;;;5029095;28;20236;-64
2021/06/26 05:24:54;;;;;;;7.50;5.40;;;18.20;99.90;;;;;;5028126;28;20619;-62
2021/06/26 05:27:22;;;;;;;6.90;6.00;;;18.40;99.90;;;;;;5029272;28;20264;-63
2021/06/26 05:29:51;;;;;;;7.53;5.10;;;18.50;99.90;;;;;;5033433;28;20230;-63
2021/06/26 05:32:19;;;;;;;7.97;5.53;;;18.70;99.90;;;;;;5043583;28;20241;-64
2021/06/26 05:34:47;;;;;;;6.10;5.57;;;19.00;99.90;;;;;;5026528;28;20750;-64
2021/06/26 05:37:15;;;;;;;6.60;5.27;;;19.30;99.90;;;;;;5029010;28;20249;-64
2021/06/26 05:39:43;;;;;;;4.73;4.33;;;19.40;99.90;;;;;;5028444;28;20330;-64
2021/06/26 05:42:12;;;;;;;7.40;5.30;;;19.40;99.90;;;;;;5029007;28;20249;-64
2021/06/26 05:44:41;;;;;;;6.13;5.20;;;19.40;99.90;;;;;;5028935;28;20261;-63
2021/06/26 05:47:13;;;;;;;10.10;6.97;;;19.60;99.90;;;;;;5009502;28;21022;-63
2021/06/26 05:49:42;;;;;;;7.63;6.60;;;20.00;99.90;;;;;;5011859;28;20247;-64
2021/06/26 05:52:10;;;;;;;7.47;6.60;;;20.30;99.90;;;;;;5029124;28;20601;-64
2021/06/26 05:54:38;;;;;;;8.90;6.53;;;20.40;99.90;;;;;;5043797;28;20351;-63
2021/06/26 05:57:07;;;;;;;10.63;5.33;;;20.60;99.90;;;;;;5028096;28;20238;-64
2021/06/26 05:59:36;;;;;;;6.30;5.70;;;20.60;99.90;;;;;;5028078;28;20601;-64
2021/06/26 06:02:10;;;;;;;6.83;6.33;;;20.60;99.90;;;;;;5026465;28;20238;-63
2021/06/26 06:04:38;;;;;;;7.70;6.20;;;20.50;99.90;;;;;;5030844;28;20302;-64
2021/06/26 06:07:06;;;;;;;10.07;8.10;;;20.50;99.90;;;;;;5025933;28;20468;-64
2021/06/26 06:09:34;;;;;;;7.63;6.50;;;20.50;99.90;;;;;;5027598;28;20707;-62
2021/06/26 06:12:03;;;;;;;8.67;7.60;;;20.50;99.90;;;;;;5027962;28;20322;-64
2021/06/26 06:14:31;;;;;;;6.23;5.73;;;20.60;99.90;;;;;;5028118;28;20634;-63
2021/06/26 06:17:00;;;;;;;7.13;6.43;;;20.60;99.90;;;;;;5028101;28;20236;-63
2021/06/26 06:19:29;;;;;;;6.10;5.60;;;20.60;99.90;;;;;;5042702;28;20259;-64
2021/06/26 06:21:57;;;;;;;7.70;7.00;;;20.60;99.90;;;;;;5041634;28;20318;-65
2021/06/26 06:24:25;;;;;;;7.00;5.87;;;20.70;99.90;;;;;;5027481;28;20239;-63
2021/06/26 06:26:53;;;;;;;7.33;5.83;;;20.90;99.90;;;;;;5031761;28;20231;-64
2021/06/26 06:29:21;;;;;;;6.93;6.23;;;20.90;99.90;;;;;;5027130;28;20400;-63
2021/06/26 06:31:49;;;;;;;5.97;4.97;;;21.00;99.90;;;;;;5007309;28;20264;-64
2021/06/26 06:34:19;;;;;;;6.13;5.53;;;21.00;99.90;;;;;;5007933;28;20239;-62
2021/06/26 06:36:47;;;;;;;5.63;5.10;;;20.90;99.90;;;;;;5011095;28;20323;-64
2021/06/26 06:39:15;;;;;;;7.80;7.00;;;20.90;99.90;;;;;;5027157;28;20239;-64
2021/06/26 06:41:43;;;;;;;6.57;5.60;;;20.90;99.90;;;;;;5045610;28;20752;-64
2021/06/26 06:44:12;;;;;;;6.87;6.17;;;20.90;99.90;;;;;;5047255;28;20589;-65
2021/06/26 06:46:40;;;;;;;7.13;6.40;;;20.90;99.90;;;;;;5027330;28;20243;-62
2021/06/26 06:49:08;;;;;;;7.53;6.27;;;21.20;99.90;;;;;;5005634;28;20279;-63
2021/06/26 06:51:38;;;;;;;5.57;4.87;;;21.30;99.90;;;;;;5023246;28;20270;-63
2021/06/26 06:54:06;;;;;;;5.50;5.00;;;21.40;99.90;;;;;;5025359;28;20247;-65
2021/06/26 06:56:34;;;;;;;7.13;6.40;;;21.80;99.90;;;;;;5025462;28;20889;-63
2021/06/26 06:59:02;;;;;;;7.03;6.43;;;22.30;99.90;;;;;;5025637;28;20700;-64
2021/06/26 07:01:30;;;;;;;5.53;5.03;;;23.00;99.90;;;;;;5023711;28;20274;-63
2021/06/26 07:03:59;;;;;;;5.70;4.27;;;23.50;99.90;;;;;;5025300;28;20298;-63
2021/06/26 07:06:27;;;;;;;6.10;4.90;;;23.70;99.90;;;;;;5042412;28;20652;-64
2021/06/26 07:08:56;;;;;;;4.83;4.43;;;23.60;99.90;;;;;;5045132;28;20596;-64
2021/06/26 07:11:26;;;;;;;5.93;4.27;;;23.70;99.90;;;;;;5027093;28;20768;-63
2021/06/26 07:13:54;;;;;;;4.50;4.03;;;23.90;99.90;;;;;;5025215;28;20255;-64
2021/06/26 07:16:23;;;;;;;5.50;5.00;;;24.10;99.90;;;;;;5024045;28;20236;-61
2021/06/26 07:18:51;;;;;;;5.67;5.17;;;24.70;99.90;;;;;;5024662;28;20233;-64
2021/06/26 07:21:23;;;;;;;5.10;4.60;;;24.70;99.90;;;;;;5020898;28;20256;-64
2021/06/26 07:23:51;;;;;;;5.97;4.63;;;24.60;99.90;;;;;;5025367;28;20228;-66
2021/06/26 07:26:20;;;;;;;4.80;4.40;;;24.50;99.90;;;;;;5021194;28;20244;-64
2021/06/26 07:28:48;;;;;;;4.43;4.13;;;24.60;99.90;;;;;;5024351;28;20699;-66
2021/06/26 07:31:17;;;;;;;4.60;3.57;;;24.90;99.90;;;;;;5023757;28;20607;-66
2021/06/26 07:33:45;;;;;;;4.20;3.33;;;25.10;99.90;;;;;;5024772;28;20332;-65
2021/06/26 07:36:13;;;;;;;4.43;4.03;;;25.20;99.90;;;;;;5036180;28;20691;-64
2021/06/26 07:38:41;;;;;;;4.40;3.83;;;25.10;99.90;;;;;;5025323;28;20233;-65
2021/06/26 07:41:13;;;;;;;4.10;3.67;;;25.10;99.90;;;;;;5034215;28;20241;-65
2021/06/26 07:43:43;;;;;;;4.37;3.97;;;24.90;99.90;;;;;;5025565;28;20241;-66
2021/06/26 07:46:12;;;;;;;4.33;3.70;;;24.90;99.90;;;;;;5034502;28;20237;-67
2021/06/26 07:48:40;;;;;;;3.57;3.23;;;25.00;99.90;;;;;;5025536;28;20245;-66
2021/06/26 07:51:08;;;;;;;4.70;4.27;;;25.20;99.90;;;;;;5040399;28;20233;-66
2021/06/26 07:53:36;;;;;;;3.37;3.07;;;25.40;99.90;;;;;;5045884;28;20238;-66
2021/06/26 07:56:05;;;;;;;4.37;3.60;;;25.40;99.90;;;;;;5044600;28;20244;-65
2021/06/26 07:58:34;;;;;;;4.40;3.70;;;25.90;99.90;;;;;;5040615;28;20344;-66
2021/06/26 08:01:03;;;;;;;4.57;4.07;;;26.10;99.90;;;;;;5044091;28;20641;-64
2021/06/26 08:03:31;;;;;;;4.53;3.60;;;26.40;99.90;;;;;;5060307;28;20242;-65
2021/06/26 08:06:00;;;;;;;3.33;3.10;;;26.50;99.90;;;;;;5031444;28;20646;-66
2021/06/26 08:08:28;;;;;;;4.87;4.47;;;26.80;99.90;;;;;;5023465;28;20320;-65
2021/06/26 08:10:56;;;;;;;4.00;3.60;;;26.80;99.90;;;;;;5038966;28;20722;-65
2021/06/26 08:13:24;;;;;;;5.40;4.90;;;26.70;99.90;;;;;;5043436;28;20839;-65
2021/06/26 08:15:53;;;;;;;5.37;4.70;;;26.60;99.90;;;;;;5026929;28;20243;-64
2021/06/26 08:18:22;;;;;;;3.50;3.10;;;26.60;99.90;;;;;;5026624;28;20247;-65
2021/06/26 08:20:50;;;;;;;4.47;3.87;;;26.70;99.90;;;;;;5037956;28;20268;-64
2021/06/26 08:23:19;;;;;;;3.90;3.23;;;26.90;99.90;;;;;;5027320;28;20581;-65
2021/06/26 08:25:47;;;;;;;4.77;4.27;;;27.40;99.90;;;;;;5024811;28;20332;-66
2021/06/26 08:28:15;;;;;;;3.70;3.40;;;27.60;99.90;;;;;;5011283;28;20772;-65
2021/06/26 08:30:43;;;;;;;4.00;3.70;;;27.60;99.90;;;;;;5020921;28;20247;-65
2021/06/26 08:33:11;;;;;;;6.10;4.20;;;27.40;99.90;;;;;;5031254;28;20743;-66
2021/06/26 08:35:41;;;;;;;3.20;2.93;;;27.30;99.90;;;;;;5020577;28;20687;-64
2021/06/26 08:38:09;;;;;;;4.50;2.93;;;27.10;99.90;;;;;;5008543;28;20309;-65
2021/06/26 08:40:37;;;;;;;4.00;3.57;;;27.10;99.90;;;;;;5014091;28;20266;-65
2021/06/26 08:43:05;;;;;;;4.20;3.80;;;27.10;99.90;;;;;;5013473;28;21569;-65
2021/06/26 08:45:36;;;;;;;4.27;3.87;;;27.10;99.90;;;;;;5012839;28;21224;-66
2021/06/26 08:48:05;;;;;;;4.43;3.20;;;27.00;99.90;;;;;;5008053;28;20246;-64
2021/06/26 08:50:34;;;;;;;6.53;5.50;;;27.00;99.90;;;;;;5012648;28;20249;-66
2021/06/26 08:53:03;;;;;;;4.50;4.10;;;27.00;99.90;;;;;;5013508;28;21069;-66
2021/06/26 08:55:32;;;;;;;5.53;5.03;;;27.00;99.90;;;;;;5012846;28;20246;-65
2021/06/26 08:58:03;;;;;;;6.73;6.13;;;26.90;99.90;;;;;;5009123;28;20671;-65
2021/06/26 09:00:32;;;;;;;5.33;4.83;;;26.80;99.90;;;;;;5014392;28;20256;-65
2021/06/26 09:03:12;;;;;;;5.47;4.97;;;26.80;99.90;;;;;;5017257;28;20243;-66
2021/06/26 09:05:42;;;;;;;5.73;4.30;;;26.90;99.90;;;;;;5016823;28;20726;-65
2021/06/26 09:08:15;;;;;;;6.30;4.83;;;26.90;99.90;;;;;;5012308;28;20568;-65
2021/06/26 09:10:45;;;;;;;6.10;5.50;;;26.90;99.90;;;;;;5015519;28;20573;-65
2021/06/26 09:13:17;;;;;;;7.03;6.33;;;27.10;99.90;;;;;;5016350;28;20248;-64
2021/06/26 09:15:46;;;;;;;5.30;4.90;;;27.10;99.00;;;;;;5016925;28;20247;-64
2021/06/26 09:18:17;;;;;;;5.40;4.90;;;27.00;99.90;;;;;;5011303;28;20352;-66
2021/06/26 09:20:48;;;;;;;5.20;4.73;;;27.10;99.90;;;;;;5015685;28;20292;-65
2021/06/26 09:23:20;;;;;;;5.73;5.13;;;27.30;99.90;;;;;;5016659;28;20244;-64
2021/06/26 09:25:52;;;;;;;6.10;4.63;;;27.40;99.90;;;;;;5029030;28;20242;-65
2021/06/26 09:28:25;;;;;;;7.43;6.73;;;27.40;99.90;;;;;;5021254;28;20239;-66
2021/06/26 09:30:54;;;;;;;8.00;6.20;;;27.20;99.90;;;;;;5022972;28;20306;-66
2021/06/26 09:33:26;;;;;;;5.73;5.33;;;27.20;99.90;;;;;;5016242;28;20318;-66
2021/06/26 09:36:03;;;;;;;6.53;5.93;;;27.20;99.90;;;;;;5015867;28;20745;-65
2021/06/26 09:38:34;;;;;;;5.73;5.13;;;27.40;99.90;;;;;;5011194;28;20341;-65
2021/06/26 09:41:14;;;;;;;8.40;6.33;;;27.60;99.90;;;;;;5015428;28;20274;-66
2021/06/26 09:43:43;;;;;;;7.10;6.50;;;27.80;98.90;;;;;;5015939;28;20784;-65
2021/06/26 09:46:12;;;;;;;6.27;5.67;;;27.90;99.90;;;;;;5015626;28;20758;-66
2021/06/26 09:48:52;;;;;;;6.67;6.03;;;27.90;99.90;;;;;;5010908;28;20655;-65
2021/06/26 09:51:23;;;;;;;6.73;6.07;;;27.90;99.90;;;;;;5014342;28;20240;-67
2021/06/26 09:53:59;;;;;;;9.63;7.80;;;28.10;99.40;;;;;;5016076;28;20263;-67
2021/06/26 09:56:41;;;;;;;10.43;9.27;;;28.00;99.30;;;;;;5015841;28;20242;-65
2021/06/26 09:59:11;;;;;;;7.93;7.13;;;27.50;98.60;;;;;;5013678;28;20274;-64
2021/06/26 10:01:42;;;;;;;9.43;6.17;;;27.70;99.20;;;;;;5015339;28;20331;-66
2021/06/26 10:04:13;;;;;;;6.53;4.73;;;28.00;99.50;;;;;;5015828;28;20664;-64
2021/06/26 10:06:42;;;;;;;5.57;5.07;;;28.60;99.90;;;;;;5020543;28;20261;-64
2021/06/26 10:09:13;;;;;;;7.27;5.63;;;29.60;98.40;;;;;;5010353;28;20244;-65
2021/06/26 10:11:42;;;;;;;6.17;5.53;;;29.80;97.70;;;;;;5024724;28;20619;-66
2021/06/26 10:14:12;;;;;;;6.20;5.57;;;30.40;97.30;;;;;;5015806;28;20243;-66
2021/06/26 10:16:42;;;;;;;6.23;5.63;;;30.50;96.70;;;;;;5014573;28;20268;-66
2021/06/26 10:19:13;;;;;;;6.03;4.87;;;30.30;96.90;;;;;;5012483;28;20245;-65
2021/06/26 10:21:43;;;;;;;6.47;5.97;;;30.20;97.20;;;;;;5014389;28;20758;-64
2021/06/26 10:24:14;;;;;;;5.43;4.93;;;30.30;96.10;;;;;;5023476;28;20289;-64
2021/06/26 10:26:44;;;;;;;8.00;6.23;;;31.20;96.00;;;;;;5019742;28;20456;-65
2021/06/26 10:29:15;;;;;;;7.50;5.70;;;31.30;94.70;;;;;;5009897;28;20286;-65
2021/06/26 10:31:46;;;;;;;8.67;7.70;;;31.50;95.20;;;;;;5014427;28;20236;-66
2021/06/26 10:34:17;;;;;;;6.80;6.10;;;31.20;93.90;;;;;;5015433;28;20235;-66
2021/06/26 10:36:51;;;;;;;8.63;6.80;;;30.60;95.00;;;;;;5034636;28;20248;-65
2021/06/26 10:39:23;;;;;;;9.40;6.50;;;29.80;95.30;;;;;;5011293;28;20271;-64
2021/06/26 10:42:02;;;;;;;9.37;8.47;;;29.90;96.50;;;;;;5013135;28;20346;-65
2021/06/26 10:44:41;;;;;;;6.70;6.10;;;29.90;95.70;;;;;;5014479;28;20271;-65
2021/06/26 10:47:09;;;;;;;9.63;8.37;;;30.50;95.70;;;;;;5031351;28;20761;-66
2021/06/26 10:49:38;;;;;;;10.00;9.20;;;30.80;94.80;;;;;;5011604;28;20328;-65
2021/06/26 10:52:08;;;;;;;8.87;7.97;;;30.90;94.10;;;;;;5018714;28;20323;-65
2021/06/26 10:54:49;;;;;;;8.37;7.63;;;30.40;95.30;;;;;;5013934;28;20258;-65
2021/06/26 10:57:17;;;;;;;9.83;8.37;;;30.10;94.70;;;;;;5013536;28;20252;-65
2021/06/26 10:59:58;;;;;;;8.13;6.37;;;29.50;95.30;;;;;;5008688;28;20601;-66
2021/06/26 11:02:39;;;;;;;6.90;6.20;;;30.00;96.40;;;;;;5013182;28;20708;-66
2021/06/26 11:05:09;;;;;;;8.67;7.87;;;30.00;96.70;;;;;;5014275;28;20666;-65
2021/06/26 11:07:37;;;;;;;9.40;8.50;;;30.00;96.50;;;;;;5013267;28;20247;-67
2021/06/26 11:10:09;;;;;;;9.37;8.50;;;29.60;95.50;;;;;;5014629;28;20677;-65
2021/06/26 11:12:40;;;;;;;7.77;7.07;;;29.10;96.20;;;;;;5013678;28;20327;-65
2021/06/26 11:15:09;;;;;;;8.17;7.47;;;28.70;97.10;;;;;;5013919;28;20358;-64
2021/06/26 11:17:40;;;;;;;7.67;6.83;;;28.50;96.80;;;;;;5013892;28;20240;-66
2021/06/26 11:20:10;;;;;;;9.50;7.03;;;28.40;97.20;;;;;;5018765;28;20259;-65
2021/06/26 11:22:39;;;;;;;7.67;6.83;;;28.40;96.60;;;;;;5012530;28;20275;-65
2021/06/26 11:25:13;;;;;;;8.40;7.60;;;29.10;96.50;;;;;;5011681;28;20236;-65
2021/06/26 11:27:41;;;;;;;6.33;5.73;;;29.80;96.80;;;;;;5012406;28;20268;-67
2021/06/26 11:30:10;;;;;;;6.90;6.20;;;30.50;95.60;;;;;;5008634;28;20258;-66
2021/06/26 11:32:38;;;;;;;8.03;7.23;;;30.70;95.20;;;;;;5012055;28;20257;-66
2021/06/26 11:35:10;;;;;;;8.27;6.80;;;30.80;94.80;;;;;;5018733;28;20836;-65
2021/06/26 11:37:40;;;;;;;6.97;6.27;;;31.10;94.60;;;;;;5012243;28;20773;-66
2021/06/26 11:40:22;;;;;;;6.47;5.20;;;31.30;94.70;;;;;;5014489;28;20240;-66
2021/06/26 11:42:52;;;;;;;7.20;6.53;;;31.60;95.60;;;;;;5022991;28;20236;-63
2021/06/26 11:45:23;;;;;;;6.03;5.40;;;32.10;95.20;;;;;;5024355;28;20735;-65
2021/06/26 11:48:02;;;;;;;7.20;6.50;;;32.60;95.10;;;;;;5025180;28;20532;-66
2021/06/26 11:50:31;;;;;;;6.03;5.53;;;33.10;93.90;;;;;;5023998;28;20243;-67
2021/06/26 11:53:05;;;;;;;5.97;5.47;;;32.80;93.90;;;;;;5045453;28;20263;-66
2021/06/26 11:55:39;;;;;;;8.00;7.20;;;32.90;93.50;;;;;;5030926;28;20253;-66
2021/06/26 11:58:08;;;;;;;8.77;8.03;;;32.90;93.80;;;;;;5040117;28;20258;-66
2021/06/26 12:00:40;;;;;;;6.53;5.93;;;32.40;91.90;;;;;;5025803;28;20685;-65
2021/06/26 12:03:16;;;;;;;6.50;6.00;;;32.50;93.60;;;;;;5025285;28;20266;-65
2021/06/26 12:05:45;;;;;;;9.87;6.90;;;32.30;93.70;;;;;;5025042;28;20789;-66
2021/06/26 12:08:17;;;;;;;11.83;6.87;;;32.20;93.90;;;;;;5025069;28;20266;-66
2021/06/26 12:10:50;;;;;;;7.13;6.47;;;32.10;93.80;;;;;;5024864;28;20299;-66
2021/06/26 12:13:20;;;;;;;5.70;5.20;;;31.70;94.30;;;;;;5040857;28;20236;-67
2021/06/26 12:15:49;;;;;;;8.43;6.50;;;31.50;95.00;;;;;;5025713;28;20276;-66
2021/06/26 12:18:17;;;;;;;7.57;6.67;;;31.20;94.70;;;;;;5025284;28;20291;-68
2021/06/26 12:20:45;;;;;;;7.17;6.47;;;30.90;95.30;;;;;;5040190;28;20319;-67
2021/06/26 12:23:14;;;;;;;6.10;5.50;;;30.40;94.90;;;;;;5046664;28;20728;-65
2021/06/26 12:25:44;;;;;;;6.73;6.03;;;30.10;95.90;;;;;;5032202;28;20244;-65
2021/06/26 12:28:13;;;;;;;7.87;6.27;;;30.00;95.80;;;;;;5026131;28;20242;-66
2021/06/26 12:30:43;;;;;;;7.90;7.10;;;29.90;96.10;;;;;;5025625;28;20255;-66
2021/06/26 12:33:15;;;;;;;9.93;7.50;;;29.90;96.20;;;;;;5026068;28;20770;-66
2021/06/26 12:35:43;;;;;;;8.30;7.60;;;29.80;95.60;;;;;;5028470;28;20754;-66
2021/06/26 12:38:11;;;;;;;7.67;6.97;;;29.60;96.50;;;;;;5029660;28;20240;-65
2021/06/26 12:40:42;;;;;;;6.50;5.90;;;29.60;95.90;;;;;;5028822;28;20237;-66
2021/06/26 12:43:16;;;;;;;7.17;6.60;;;29.60;97.00;;;;;;5009807;28;20268;-66
2021/06/26 12:45:46;;;;;;;6.83;6.20;;;29.70;97.00;;;;;;5036583;28;20755;-66
2021/06/26 12:48:17;;;;;;;6.57;5.97;;;29.70;96.50;;;;;;5029279;28;20610;-66
2021/06/26 12:50:59;;;;;;;8.33;6.97;;;29.70;96.30;;;;;;5029600;28;20245;-66
2021/06/26 12:53:38;;;;;;;5.00;4.50;;;29.50;96.10;;;;;;5029742;28;20232;-65
2021/06/26 12:56:10;;;;;;;7.53;5.70;;;29.30;96.90;;;;;;5044274;28;20239;-66
2021/06/26 12:58:52;;;;;;;7.57;6.80;;;29.50;97.50;;;;;;5034294;28;20240;-66